Time;durP1;ratioP1;P1;durP2;ratioP2;P2;SDS_P1;SDS_P2;PMS_P1;PMS_P2;Temp;Humidity;BMP_temperature;BMP_pressure;BME280_temperature;BME280_humidity;BME280_pressure;Samples;Min_cycle;Max_cycle;Signal;HPM_P1;HPM_P2
2022/09/03 00:02:26;;;;;;;5.07;1.20;;;18.30;61.00;;;;;;4993688;28;20096;-72
2022/09/03 00:05:10;;;;;;;4.97;1.60;;;18.30;61.00;;;;;;4994362;28;20046;-72
2022/09/03 00:08:02;;;;;;;8.20;1.63;;;18.20;61.00;;;;;;4993261;28;20050;-72
2022/09/03 00:11:10;;;;;;;4.73;1.20;;;18.20;61.20;;;;;;4993820;28;20050;-72
2022/09/03 00:13:41;;;;;;;2.87;1.00;;;18.10;61.40;;;;;;4972597;28;20054;-72
2022/09/03 00:16:11;;;;;;;6.27;1.13;;;18.10;61.30;;;;;;4993698;28;20042;-73
2022/09/03 00:18:53;;;;;;;2.97;1.00;;;18.00;61.60;;;;;;4993404;28;20043;-72
2022/09/03 00:21:31;;;;;;;4.27;1.10;;;18.00;61.70;;;;;;4994246;28;20054;-72
2022/09/03 00:24:00;;;;;;;6.40;1.40;;;18.00;62.00;;;;;;4994500;28;20144;-72
2022/09/03 00:26:28;;;;;;;5.03;1.30;;;17.90;62.00;;;;;;4993615;28;20053;-72
2022/09/03 00:29:02;;;;;;;3.17;1.10;;;17.90;62.20;;;;;;4992914;28;20397;-72
2022/09/03 00:31:38;;;;;;;2.33;1.13;;;17.80;62.30;;;;;;4994131;28;20047;-72
2022/09/03 00:34:10;;;;;;;5.60;1.63;;;17.80;62.30;;;;;;4993568;28;20140;-72
2022/09/03 00:36:44;;;;;;;3.67;0.90;;;17.80;62.50;;;;;;4995235;28;20567;-72
2022/09/03 00:39:13;;;;;;;5.25;1.10;;;17.80;62.70;;;;;;4997109;28;20143;-72
2022/09/03 00:42:05;;;;;;;7.57;2.10;;;17.70;62.50;;;;;;4997027;28;20562;-72
2022/09/03 00:45:02;;;;;;;4.13;1.43;;;17.70;63.00;;;;;;4997089;28;20054;-72
2022/09/03 00:48:00;;;;;;;2.53;0.93;;;17.70;63.00;;;;;;4997037;28;20162;-72
2022/09/03 00:50:45;;;;;;;5.40;1.07;;;17.60;63.30;;;;;;4986259;28;20057;-72
2022/09/03 00:53:39;;;;;;;3.30;1.10;;;17.60;63.40;;;;;;4996994;28;20146;-72
2022/09/03 00:56:30;;;;;;;4.83;1.30;;;17.60;63.60;;;;;;4971342;28;20483;-72
2022/09/03 00:59:22;;;;;;;3.03;1.00;;;17.50;63.50;;;;;;4996847;28;20050;-72
2022/09/03 01:01:54;;;;;;;4.50;1.10;;;17.50;63.90;;;;;;4997494;28;20046;-72
2022/09/03 01:04:39;;;;;;;2.67;1.30;;;17.50;63.90;;;;;;4996671;28;20050;-72
2022/09/03 01:07:31;;;;;;;2.13;1.03;;;17.40;64.00;;;;;;4996653;28;20282;-73
2022/09/03 01:10:37;;;;;;;4.13;1.20;;;17.40;64.20;;;;;;4997373;28;20349;-72
2022/09/03 01:13:07;;;;;;;3.97;1.20;;;17.30;64.50;;;;;;4988403;28;20297;-72
2022/09/03 01:15:51;;;;;;;2.53;1.03;;;17.30;64.50;;;;;;4996950;28;20132;-72
2022/09/03 01:18:41;;;;;;;5.17;1.00;;;17.30;64.70;;;;;;4997268;28;20361;-72
2022/09/03 01:21:18;;;;;;;6.33;1.13;;;17.30;64.70;;;;;;4996628;28;20419;-72
2022/09/03 01:23:53;;;;;;;2.50;1.10;;;17.20;65.00;;;;;;4996904;28;20592;-72
2022/09/03 01:26:21;;;;;;;7.13;1.25;;;17.20;65.10;;;;;;4996838;28;20054;-72
2022/09/03 01:29:04;;;;;;;7.50;0.97;;;17.20;65.30;;;;;;4996157;28;20137;-72
2022/09/03 01:32:03;;;;;;;2.23;0.83;;;17.20;65.50;;;;;;4995236;28;20789;-72
2022/09/03 01:34:54;;;;;;;6.70;1.10;;;17.20;65.60;;;;;;4996158;28;20061;-72
2022/09/03 01:37:31;;;;;;;2.60;1.00;;;17.20;65.80;;;;;;4996393;28;20292;-72
2022/09/03 01:40:12;;;;;;;3.30;1.13;;;17.20;66.30;;;;;;4996096;28;20278;-72
2022/09/03 01:42:50;;;;;;;5.67;1.30;;;17.20;65.60;;;;;;4996016;28;20056;-72
2022/09/03 01:45:30;;;;;;;6.50;1.40;;;17.10;65.80;;;;;;4996039;28;20289;-72
2022/09/03 01:48:29;;;;;;;5.77;0.97;;;17.20;65.90;;;;;;4995212;28;20288;-72
2022/09/03 01:51:16;;;;;;;3.67;1.00;;;17.20;66.00;;;;;;4996629;28;20349;-70
2022/09/03 01:54:09;;;;;;;5.77;1.00;;;17.20;66.40;;;;;;4995804;28;20288;-70
2022/09/03 01:57:09;;;;;;;5.67;1.00;;;17.10;66.30;;;;;;4994735;28;20642;-70
2022/09/03 01:59:43;;;;;;;3.50;1.00;;;17.20;66.50;;;;;;4996135;28;20050;-70
2022/09/03 02:02:22;;;;;;;3.88;1.23;;;17.10;66.20;;;;;;4995844;28;20049;-70
2022/09/03 02:05:08;;;;;;;4.10;1.07;;;17.10;66.70;;;;;;4996224;28;20046;-70
2022/09/03 02:07:50;;;;;;;3.30;1.10;;;17.10;66.70;;;;;;4995949;28;20301;-71
2022/09/03 02:10:45;;;;;;;2.07;0.83;;;17.10;66.80;;;;;;4995867;28;20396;-71
2022/09/03 02:13:12;;;;;;;4.47;1.00;;;17.10;66.80;;;;;;4995439;28;20356;-70
2022/09/03 02:15:44;;;;;;;6.47;1.00;;;17.10;66.80;;;;;;4996081;28;20613;-71
2022/09/03 02:18:16;;;;;;;3.33;0.90;;;17.00;66.90;;;;;;4996059;28;20357;-71
2022/09/03 02:20:42;;;;;;;3.03;0.87;;;17.00;67.70;;;;;;4994860;28;20797;-71
2022/09/03 02:23:08;;;;;;;4.70;1.00;;;17.00;67.30;;;;;;4995194;28;20371;-71
2022/09/03 02:25:40;;;;;;;3.00;0.80;;;17.00;67.20;;;;;;4995207;28;20760;-71
2022/09/03 02:28:07;;;;;;;2.30;1.13;;;17.00;67.50;;;;;;4995086;28;20166;-71
2022/09/03 02:30:34;;;;;;;3.77;1.10;;;17.00;67.50;;;;;;4994821;28;20773;-71
2022/09/03 02:33:00;;;;;;;5.43;0.93;;;17.00;67.50;;;;;;4995830;28;20281;-71
2022/09/03 02:35:27;;;;;;;2.60;1.10;;;17.00;67.60;;;;;;4995010;28;20293;-71
2022/09/03 02:37:52;;;;;;;2.30;1.00;;;17.00;67.60;;;;;;4994636;28;20769;-71
2022/09/03 02:40:18;;;;;;;7.93;1.13;;;16.90;67.60;;;;;;4994317;28;20316;-71
2022/09/03 02:42:46;;;;;;;6.30;1.40;;;16.90;67.70;;;;;;4994906;28;20057;-71
2022/09/03 02:45:27;;;;;;;3.93;1.10;;;16.90;68.00;;;;;;4994873;28;20050;-71
2022/09/03 02:47:56;;;;;;;6.23;0.90;;;16.90;68.10;;;;;;4995538;28;20369;-71
2022/09/03 02:50:22;;;;;;;2.93;1.10;;;16.90;68.20;;;;;;4995176;28;20669;-71
2022/09/03 02:52:48;;;;;;;2.00;0.90;;;16.80;68.30;;;;;;4994649;28;20634;-72
2022/09/03 02:55:14;;;;;;;2.40;0.83;;;16.80;68.50;;;;;;4994635;28;20284;-72
2022/09/03 02:57:40;;;;;;;4.60;1.20;;;16.80;68.60;;;;;;4994562;28;20046;-71
2022/09/03 03:00:07;;;;;;;6.70;0.90;;;16.80;69.00;;;;;;4994429;28;20482;-72
2022/09/03 03:02:33;;;;;;;3.07;1.30;;;16.80;69.00;;;;;;4994554;28;20125;-71
2022/09/03 03:04:59;;;;;;;5.80;1.10;;;16.70;69.70;;;;;;4994600;28;20274;-71
2022/09/03 03:07:25;;;;;;;6.20;1.33;;;16.70;69.50;;;;;;4994440;28;20285;-72
2022/09/03 03:09:51;;;;;;;3.10;1.37;;;16.70;70.10;;;;;;4994111;28;20445;-72
2022/09/03 03:12:18;;;;;;;3.83;0.90;;;16.70;70.20;;;;;;4994648;28;20356;-72
2022/09/03 03:14:43;;;;;;;3.90;1.00;;;16.60;70.60;;;;;;4994392;28;20058;-71
2022/09/03 03:17:09;;;;;;;3.70;1.30;;;16.60;71.10;;;;;;4994281;28;20556;-71
2022/09/03 03:19:35;;;;;;;3.90;1.30;;;16.60;71.10;;;;;;4993998;28;20053;-71
2022/09/03 03:22:00;;;;;;;3.63;1.30;;;16.60;71.60;;;;;;4994260;28;20092;-72
2022/09/03 03:24:26;;;;;;;2.50;0.90;;;16.50;71.80;;;;;;4994460;28;20046;-71
2022/09/03 03:26:58;;;;;;;2.30;1.03;;;16.50;72.30;;;;;;4994491;28;20483;-71
2022/09/03 03:29:24;;;;;;;2.90;1.10;;;16.40;72.90;;;;;;4994667;28;20057;-71
2022/09/03 03:31:50;;;;;;;2.97;1.20;;;16.40;73.30;;;;;;4994166;28;20753;-71
2022/09/03 03:34:16;;;;;;;2.93;1.10;;;16.40;73.50;;;;;;4994913;28;20054;-72
2022/09/03 03:36:42;;;;;;;5.10;1.07;;;16.30;74.60;;;;;;4993929;28;20674;-72
2022/09/03 03:39:08;;;;;;;5.00;1.00;;;16.30;74.40;;;;;;4994092;28;20047;-72
2022/09/03 03:41:35;;;;;;;5.47;1.00;;;16.30;75.20;;;;;;4993916;28;20046;-72
2022/09/03 03:44:05;;;;;;;7.23;1.27;;;16.20;75.70;;;;;;4993978;28;20133;-72
2022/09/03 03:46:34;;;;;;;2.47;1.10;;;16.30;75.70;;;;;;4993947;28;20281;-72
2022/09/03 03:49:00;;;;;;;3.57;1.00;;;16.30;75.80;;;;;;4993977;28;20278;-72
2022/09/03 03:51:26;;;;;;;2.33;0.90;;;16.20;76.40;;;;;;4993879;28;20286;-72
2022/09/03 03:53:56;;;;;;;2.93;1.20;;;16.20;76.80;;;;;;4993604;28;20495;-72
2022/09/03 03:56:23;;;;;;;3.17;1.30;;;16.20;76.80;;;;;;4994589;28;20281;-72
2022/09/03 03:58:49;;;;;;;3.53;0.93;;;16.30;77.10;;;;;;4993632;28;20326;-71
2022/09/03 04:01:21;;;;;;;3.60;1.03;;;16.20;76.80;;;;;;4993778;28;20650;-72
2022/09/03 04:03:46;;;;;;;6.23;1.10;;;16.20;77.00;;;;;;4994520;28;20125;-72
2022/09/03 04:06:15;;;;;;;6.27;1.10;;;16.20;77.20;;;;;;4994810;28;20809;-71
2022/09/03 04:08:42;;;;;;;4.13;1.20;;;16.20;77.00;;;;;;4994480;28;20058;-71
2022/09/03 04:11:10;;;;;;;2.67;1.10;;;16.20;77.00;;;;;;4994577;28;20278;-71
2022/09/03 04:13:38;;;;;;;3.13;0.90;;;16.20;77.00;;;;;;4980533;28;20637;-71
2022/09/03 04:16:07;;;;;;;2.13;0.97;;;16.30;77.00;;;;;;4998369;28;20277;-71
2022/09/03 04:18:34;;;;;;;3.53;1.27;;;16.30;76.90;;;;;;4997518;28;20281;-71
2022/09/03 04:21:09;;;;;;;3.63;0.97;;;16.30;76.80;;;;;;4997124;28;20301;-72
2022/09/03 04:23:37;;;;;;;6.03;0.90;;;16.30;77.40;;;;;;4997261;28;20772;-72
2022/09/03 04:26:03;;;;;;;3.27;1.20;;;16.30;77.20;;;;;;4997423;28;20069;-72
2022/09/03 04:28:29;;;;;;;5.50;1.20;;;16.30;76.90;;;;;;4997351;28;20289;-72
2022/09/03 04:30:59;;;;;;;4.60;1.03;;;16.20;77.30;;;;;;4996022;28;20280;-72
2022/09/03 04:33:24;;;;;;;2.17;0.93;;;16.20;77.20;;;;;;4997879;28;20046;-72
2022/09/03 04:35:50;;;;;;;6.03;1.10;;;16.20;77.50;;;;;;4997259;28;20816;-72
2022/09/03 04:38:16;;;;;;;2.87;1.10;;;16.20;77.90;;;;;;4997230;28;20046;-72
2022/09/03 04:40:41;;;;;;;2.80;1.07;;;16.20;78.10;;;;;;4997075;28;20052;-72
2022/09/03 04:43:07;;;;;;;4.67;1.10;;;16.10;78.50;;;;;;4997206;28;20138;-72
2022/09/03 04:45:33;;;;;;;2.13;1.00;;;16.10;78.60;;;;;;4997153;28;20133;-72
2022/09/03 04:48:03;;;;;;;3.73;1.20;;;16.10;78.90;;;;;;4995951;28;20070;-72
2022/09/03 04:50:30;;;;;;;3.97;1.23;;;16.10;79.30;;;;;;4996287;28;20057;-72
2022/09/03 04:53:01;;;;;;;5.87;1.10;;;16.00;79.70;;;;;;4996989;28;20289;-72
2022/09/03 04:55:27;;;;;;;4.37;1.43;;;;;;;;;;4996939;28;20290;-72
2022/09/03 04:57:53;;;;;;;3.83;1.00;;;16.00;79.80;;;;;;4996097;28;20285;-72
2022/09/03 05:00:19;;;;;;;3.77;1.07;;;16.00;80.70;;;;;;4996696;28;20305;-72
2022/09/03 05:02:50;;;;;;;2.27;1.00;;;15.90;80.90;;;;;;4996730;28;20038;-72
2022/09/03 05:05:17;;;;;;;2.37;1.00;;;15.90;81.50;;;;;;4997655;28;20284;-72
2022/09/03 05:07:43;;;;;;;3.13;1.10;;;15.90;81.50;;;;;;4997221;28;20285;-72
2022/09/03 05:10:19;;;;;;;3.40;1.20;;;15.90;81.70;;;;;;4996648;28;20286;-72
2022/09/03 05:12:56;;;;;;;4.10;1.50;;;15.90;82.50;;;;;;4996659;28;20352;-72
2022/09/03 05:15:22;;;;;;;2.83;1.07;;;15.90;82.50;;;;;;4996630;28;20281;-72
2022/09/03 05:17:47;;;;;;;4.00;1.10;;;15.80;82.30;;;;;;4996437;28;20282;-72
2022/09/03 05:20:13;;;;;;;5.93;1.20;;;15.80;82.50;;;;;;4996293;28;20064;-72
2022/09/03 05:22:39;;;;;;;4.43;1.30;;;15.90;83.10;;;;;;4995242;28;20098;-72
2022/09/03 05:25:05;;;;;;;4.27;1.00;;;15.80;83.00;;;;;;4996635;28;20325;-72
2022/09/03 05:27:31;;;;;;;3.50;0.97;;;15.80;83.40;;;;;;4996317;28;20047;-71
2022/09/03 05:29:57;;;;;;;3.67;1.10;;;15.80;83.60;;;;;;4996237;28;20292;-72
2022/09/03 05:32:24;;;;;;;4.20;1.30;;;15.80;83.90;;;;;;4996242;28;20399;-72
2022/09/03 05:34:49;;;;;;;5.63;1.30;;;15.90;84.00;;;;;;4996128;28;20151;-72
2022/09/03 05:37:15;;;;;;;3.83;1.00;;;15.90;84.20;;;;;;4996222;28;20339;-72
2022/09/03 05:39:41;;;;;;;2.60;1.10;;;15.90;84.50;;;;;;4996604;28;20053;-72
2022/09/03 05:42:06;;;;;;;5.30;1.10;;;15.90;84.40;;;;;;4995996;28;20475;-72
2022/09/03 05:44:32;;;;;;;5.97;1.10;;;15.90;84.70;;;;;;4996370;28;20097;-72
2022/09/03 05:46:59;;;;;;;3.40;1.37;;;15.90;85.10;;;;;;4995915;28;20120;-72
2022/09/03 05:49:24;;;;;;;5.47;1.10;;;16.00;85.30;;;;;;4995875;28;20066;-72
2022/09/03 05:51:50;;;;;;;5.70;1.30;;;16.00;85.20;;;;;;4995883;28;20401;-72
2022/09/03 05:54:16;;;;;;;6.63;1.40;;;16.00;85.10;;;;;;4995575;28;20050;-72
2022/09/03 05:56:41;;;;;;;5.13;1.30;;;16.10;85.20;;;;;;4996301;28;20057;-72
2022/09/03 05:59:09;;;;;;;4.33;1.07;;;16.10;85.20;;;;;;4995345;28;20120;-72
2022/09/03 06:01:40;;;;;;;3.37;1.30;;;16.10;85.40;;;;;;4994453;28;20081;-72
2022/09/03 06:04:13;;;;;;;3.03;1.17;;;16.20;85.10;;;;;;4995707;28;20673;-72
2022/09/03 06:06:44;;;;;;;4.00;1.20;;;16.30;84.80;;;;;;4996172;28;20282;-72
2022/09/03 06:09:16;;;;;;;3.27;1.37;;;16.30;84.60;;;;;;4995522;28;20340;-72
2022/09/03 06:11:44;;;;;;;2.80;1.20;;;16.40;84.50;;;;;;4995498;28;20313;-72
2022/09/03 06:14:11;;;;;;;4.50;1.30;;;16.50;83.90;;;;;;4995420;28;20298;-72
2022/09/03 06:16:43;;;;;;;3.40;1.20;;;16.70;83.10;;;;;;4995416;28;20344;-72
2022/09/03 06:19:10;;;;;;;5.73;1.40;;;16.80;82.20;;;;;;4996255;28;20285;-72
2022/09/03 06:21:41;;;;;;;3.97;1.47;;;17.20;81.70;;;;;;4995584;28;20301;-72
2022/09/03 06:24:12;;;;;;;2.70;1.20;;;18.20;76.80;;;;;;4995326;28;20292;-72
2022/09/03 06:26:38;;;;;;;6.60;1.33;;;19.60;75.80;;;;;;4995225;28;20364;-72
2022/09/03 06:29:05;;;;;;;3.93;1.40;;;20.40;67.40;;;;;;4995173;28;20336;-72
2022/09/03 06:31:30;;;;;;;4.50;1.40;;;21.00;63.30;;;;;;4995134;28;20316;-72
2022/09/03 06:33:56;;;;;;;6.93;1.40;;;21.30;62.20;;;;;;4994808;28;20049;-72
2022/09/03 06:36:25;;;;;;;5.80;1.60;;;21.90;59.40;;;;;;4995843;28;20050;-73
2022/09/03 06:38:53;;;;;;;4.80;1.47;;;22.50;57.60;;;;;;4995495;28;20046;-73
2022/09/03 06:41:24;;;;;;;4.57;1.90;;;23.00;55.20;;;;;;4994918;28;20137;-72
2022/09/03 06:43:58;;;;;;;6.67;1.80;;;23.90;52.10;;;;;;4994624;28;20479;-73
2022/09/03 06:46:24;;;;;;;3.60;1.73;;;;;;;;;;4995720;28;20050;-72
2022/09/03 06:48:50;;;;;;;5.27;1.80;;;24.20;50.40;;;;;;4993174;28;20321;-73
2022/09/03 06:51:21;;;;;;;3.10;1.60;;;24.90;50.40;;;;;;4994676;28;20096;-73
2022/09/03 06:53:49;;;;;;;4.07;2.03;;;25.10;48.70;;;;;;4994703;28;20074;-72
2022/09/03 06:56:18;;;;;;;3.67;1.70;;;25.50;47.50;;;;;;4993402;28;20129;-72
2022/09/03 06:58:49;;;;;;;8.40;2.37;;;25.70;45.90;;;;;;4993696;28;20046;-73
2022/09/03 07:01:20;;;;;;;6.20;1.80;;;26.00;45.60;;;;;;4993211;28;20080;-71
2022/09/03 07:03:51;;;;;;;4.53;1.70;;;26.30;44.50;;;;;;4995011;28;20050;-72
2022/09/03 07:06:20;;;;;;;5.87;2.20;;;26.30;44.80;;;;;;4995107;28;20482;-73
2022/09/03 07:08:46;;;;;;;4.27;1.83;;;;;;;;;;4994459;28;20045;-72
2022/09/03 07:11:16;;;;;;;2.87;1.50;;;26.50;41.50;;;;;;4995179;28;20046;-72
2022/09/03 07:13:44;;;;;;;4.30;1.80;;;;;;;;;;4994477;28;20090;-73
2022/09/03 07:16:12;;;;;;;4.07;1.90;;;27.10;42.00;;;;;;4994433;28;20583;-72
2022/09/03 07:18:39;;;;;;;2.97;1.50;;;;;;;;;;4994675;28;20440;-72
2022/09/03 07:21:09;;;;;;;2.63;1.57;;;;;;;;;;4994227;28;20096;-72
2022/09/03 07:23:37;;;;;;;3.87;1.60;;;27.60;40.40;;;;;;4994521;28;20052;-72
2022/09/03 07:26:07;;;;;;;5.00;1.93;;;27.80;41.40;;;;;;4993076;28;20495;-72
2022/09/03 07:28:38;;;;;;;6.73;1.90;;;27.90;40.80;;;;;;4977152;28;20054;-72
2022/09/03 07:31:10;;;;;;;6.50;2.23;;;28.10;40.70;;;;;;4977564;28;20058;-72
2022/09/03 07:33:37;;;;;;;5.60;2.00;;;28.30;40.40;;;;;;4994139;28;20054;-72
2022/09/03 07:36:15;;;;;;;4.20;1.70;;;28.70;39.20;;;;;;4994376;28;20053;-72
2022/09/03 07:38:45;;;;;;;5.90;1.63;;;;;;;;;;4994184;28;20042;-72
2022/09/03 07:41:13;;;;;;;3.60;1.90;;;29.10;37.30;;;;;;4993915;28;20049;-72
2022/09/03 07:43:42;;;;;;;6.20;1.80;;;29.10;38.60;;;;;;4994050;28;20100;-72
2022/09/03 07:46:12;;;;;;;3.77;1.50;;;29.10;38.50;;;;;;4993407;28;20046;-72
2022/09/03 07:48:42;;;;;;;7.33;1.70;;;29.20;38.20;;;;;;4994010;28;20050;-72
2022/09/03 07:51:08;;;;;;;3.60;1.53;;;29.30;38.30;;;;;;4994287;28;20042;-72
2022/09/03 07:53:35;;;;;;;4.83;1.97;;;28.80;41.40;;;;;;4993957;28;20578;-72
2022/09/03 07:56:11;;;;;;;4.43;1.43;;;27.70;46.70;;;;;;4993957;28;20104;-72
2022/09/03 07:58:38;;;;;;;4.13;1.63;;;26.60;40.00;;;;;;4994473;28;20390;-72
2022/09/03 08:01:12;;;;;;;7.67;1.50;;;24.80;41.80;;;;;;4992660;28;20046;-72
2022/09/03 08:03:39;;;;;;;6.57;1.60;;;;;;;;;;4992635;28;20047;-72
2022/09/03 08:06:06;;;;;;;7.20;1.97;;;23.90;43.00;;;;;;4993794;28;20089;-71
2022/09/03 08:08:35;;;;;;;6.10;2.00;;;23.50;44.70;;;;;;4993805;28;20042;-72
2022/09/03 08:11:09;;;;;;;3.97;2.00;;;23.10;45.30;;;;;;4994291;28;20378;-71
2022/09/03 08:13:39;;;;;;;5.53;1.80;;;22.80;46.90;;;;;;4993754;28;20050;-71
2022/09/03 08:16:06;;;;;;;8.10;1.70;;;;;;;;;;4993797;28;20101;-71
2022/09/03 08:18:36;;;;;;;5.90;1.70;;;22.40;47.20;;;;;;4993746;28;20058;-71
2022/09/03 08:21:13;;;;;;;3.80;1.60;;;22.10;48.20;;;;;;4993212;28;20517;-72
2022/09/03 08:23:40;;;;;;;6.73;1.63;;;;;;;;;;4993691;28;20406;-71
2022/09/03 08:26:06;;;;;;;4.00;2.07;;;22.10;48.40;;;;;;4993618;28;20482;-71
2022/09/03 08:28:33;;;;;;;5.97;1.70;;;22.00;49.20;;;;;;4993638;28;20129;-72
2022/09/03 08:31:06;;;;;;;5.27;1.87;;;22.00;49.80;;;;;;4993726;28;20069;-71
2022/09/03 08:33:37;;;;;;;6.47;1.57;;;22.00;50.10;;;;;;4993491;28;20046;-72
2022/09/03 08:36:09;;;;;;;2.47;1.40;;;21.80;50.10;;;;;;4993701;28;20550;-72
2022/09/03 08:38:35;;;;;;;2.47;1.43;;;21.70;51.00;;;;;;4993643;28;20083;-71
2022/09/03 08:41:36;;;;;;;6.87;1.67;;;21.70;51.30;;;;;;4993662;28;20109;-71
2022/09/03 08:44:33;;;;;;;3.60;1.40;;;21.60;51.60;;;;;;4992686;28;20054;-72
2022/09/03 08:47:07;;;;;;;4.17;1.50;;;21.40;52.10;;;;;;4994274;28;20054;-72
2022/09/03 08:50:11;;;;;;;2.33;1.40;;;21.40;52.20;;;;;;4993801;28;20046;-71
2022/09/03 08:52:47;;;;;;;4.37;2.23;;;21.40;52.90;;;;;;4994257;28;20054;-72
2022/09/03 08:55:25;;;;;;;3.33;1.40;;;21.30;53.10;;;;;;4993647;28;20474;-72
2022/09/03 08:58:43;;;;;;;6.13;1.60;;;21.40;53.30;;;;;;4995707;28;20108;-72
2022/09/03 09:01:15;;;;;;;6.50;2.17;;;21.40;53.80;;;;;;4936572;29;20047;-72
2022/09/03 09:03:54;;;;;;;3.27;1.50;;;21.40;53.60;;;;;;4936623;29;20567;-78
2022/09/03 09:06:47;;;;;;;3.50;1.40;;;21.40;53.40;;;;;;4973698;28;20062;-72
2022/09/03 09:09:36;;;;;;;2.97;1.40;;;21.50;53.90;;;;;;4996719;28;20506;-73
2022/09/03 09:12:26;;;;;;;6.23;1.70;;;21.50;53.70;;;;;;4996650;28;20054;-70
2022/09/03 09:15:12;;;;;;;4.77;1.57;;;21.50;54.20;;;;;;4996638;28;20561;-74
2022/09/03 09:17:56;;;;;;;4.80;1.80;;;21.60;54.10;;;;;;4996833;28;20375;-71
2022/09/03 09:20:41;;;;;;;2.37;1.53;;;21.60;54.00;;;;;;4996403;28;20058;-70
2022/09/03 09:23:19;;;;;;;;;;;21.70;54.30;;;;;;4996846;28;20050;-71
2022/09/03 09:25:49;;;;;;;6.23;1.90;;;21.70;54.10;;;;;;4996275;28;19921;-72
2022/09/03 09:28:23;;;;;;;8.20;1.67;;;21.70;54.00;;;;;;4996972;28;20466;-71
2022/09/03 09:30:52;;;;;;;5.80;1.60;;;21.70;54.10;;;;;;4996362;28;20054;-74
2022/09/03 09:33:19;;;;;;;7.00;1.50;;;21.80;54.20;;;;;;4995436;28;20057;-72
2022/09/03 09:35:46;;;;;;;7.43;2.03;;;21.80;54.20;;;;;;4996908;28;20089;-73
2022/09/03 09:38:12;;;;;;;4.47;2.07;;;21.90;53.90;;;;;;4995547;28;20046;-73
2022/09/03 09:40:43;;;;;;;4.07;1.80;;;22.00;53.70;;;;;;4995401;28;20050;-72
2022/09/03 09:43:20;;;;;;;8.70;1.80;;;21.90;54.10;;;;;;4996217;28;20113;-71
2022/09/03 09:45:48;;;;;;;6.30;1.70;;;22.00;53.70;;;;;;4997026;28;20046;-78
2022/09/03 09:48:30;;;;;;;3.43;1.53;;;22.00;53.80;;;;;;4996101;28;20057;-73
2022/09/03 09:51:22;;;;;;;3.07;1.30;;;22.00;53.60;;;;;;4996647;28;20442;-73
2022/09/03 09:54:09;;;;;;;15.13;1.40;;;22.10;54.10;;;;;;4996009;28;20090;-73
2022/09/03 09:56:35;;;;;;;4.63;1.83;;;22.10;53.60;;;;;;4996026;28;20096;-72
2022/09/03 09:59:06;;;;;;;4.93;1.63;;;22.20;53.70;;;;;;4995948;28;20081;-73
2022/09/03 10:01:34;;;;;;;5.17;1.53;;;22.20;53.00;;;;;;4995724;28;20102;-73
2022/09/03 10:04:21;;;;;;;3.20;1.50;;;22.30;53.40;;;;;;4995771;28;20101;-78
2022/09/03 10:06:55;;;;;;;6.37;1.73;;;22.30;53.40;;;;;;4995539;28;20479;-78
2022/09/03 10:09:32;;;;;;;6.95;1.60;;;22.40;52.80;;;;;;4978029;28;20052;-73
2022/09/03 10:11:57;;;;;;;6.83;1.80;;;22.50;52.70;;;;;;4995300;28;20449;-73
2022/09/03 10:14:38;;;;;;;5.07;1.60;;;22.50;52.60;;;;;;4995648;28;20139;-73
2022/09/03 10:17:36;;;;;;;4.07;1.57;;;22.50;52.20;;;;;;4995570;28;20092;-73
2022/09/03 10:20:26;;;;;;;3.50;1.47;;;22.60;52.90;;;;;;4969705;28;20053;-72
2022/09/03 10:23:21;;;;;;;5.53;1.60;;;22.70;52.10;;;;;;4995900;28;20061;-72
2022/09/03 10:26:07;;;;;;;6.10;1.65;;;22.80;51.40;;;;;;4995350;28;20089;-72
2022/09/03 10:28:40;;;;;;;3.23;1.40;;;22.80;51.20;;;;;;4995830;28;20116;-72
2022/09/03 10:31:21;;;;;;;5.50;1.37;;;22.80;50.90;;;;;;4995222;28;20050;-72
2022/09/03 10:34:00;;;;;;;6.17;1.30;;;22.80;51.50;;;;;;4995688;28;20050;-72
2022/09/03 10:36:45;;;;;;;4.63;1.30;;;22.90;50.80;;;;;;4995175;28;20054;-73
2022/09/03 10:39:42;;;;;;;4.03;1.48;;;23.00;50.60;;;;;;4994993;28;20050;-74
2022/09/03 10:42:40;;;;;;;4.03;1.50;;;23.00;50.90;;;;;;4995519;28;20050;-72
2022/09/03 10:45:27;;;;;;;6.10;1.40;;;23.00;51.20;;;;;;4962016;28;20054;-73
2022/09/03 10:48:24;;;;;;;6.63;1.50;;;23.10;51.20;;;;;;4995430;28;20097;-72
2022/09/03 10:51:03;;;;;;;3.47;1.70;;;23.20;50.50;;;;;;4995472;28;20047;-73
2022/09/03 10:53:40;;;;;;;4.23;1.67;;;23.20;50.50;;;;;;4995339;28;20054;-73
2022/09/03 10:56:16;;;;;;;5.90;1.43;;;23.20;50.30;;;;;;4995060;28;20046;-72
2022/09/03 10:58:53;;;;;;;3.80;1.33;;;23.30;49.70;;;;;;4994695;28;20046;-72
2022/09/03 11:01:43;;;;;;;4.93;1.60;;;23.30;50.20;;;;;;4994657;28;20046;-73
2022/09/03 11:04:31;;;;;;;5.63;1.40;;;23.30;50.30;;;;;;4995414;28;20077;-73
2022/09/03 11:07:04;;;;;;;5.23;1.47;;;23.40;49.30;;;;;;4994610;28;20054;-73
2022/09/03 11:09:43;;;;;;;4.73;1.60;;;23.40;49.20;;;;;;4994816;28;20165;-72
2022/09/03 11:12:21;;;;;;;6.57;1.30;;;23.40;48.80;;;;;;4994539;28;20065;-74
2022/09/03 11:15:12;;;;;;;6.80;1.80;;;23.40;47.70;;;;;;4994459;28;20089;-73
2022/09/03 11:17:45;;;;;;;6.33;1.50;;;23.60;48.30;;;;;;4983906;28;20050;-78
2022/09/03 11:20:21;;;;;;;3.77;1.20;;;23.60;47.70;;;;;;4994125;28;20062;-80
2022/09/03 11:22:55;;;;;;;5.77;1.53;;;23.60;48.00;;;;;;4994062;28;20049;-72
2022/09/03 11:25:33;;;;;;;7.30;1.30;;;23.70;47.30;;;;;;4993725;28;20108;-73
2022/09/03 11:28:24;;;;;;;7.27;1.47;;;23.70;47.10;;;;;;4993649;28;20116;-74
2022/09/03 11:31:23;;;;;;;5.13;1.80;;;23.80;47.60;;;;;;4994055;28;20084;-74
2022/09/03 11:34:00;;;;;;;2.73;1.30;;;23.80;46.70;;;;;;4994492;28;20054;-73
2022/09/03 11:36:43;;;;;;;4.57;1.37;;;23.80;46.90;;;;;;4994088;28;20130;-75
2022/09/03 11:39:34;;;;;;;4.90;1.47;;;23.80;46.10;;;;;;4993957;28;20126;-72
2022/09/03 11:42:05;;;;;;;4.57;1.47;;;23.90;46.70;;;;;;4994630;28;20411;-74
2022/09/03 11:44:41;;;;;;;5.43;1.60;;;23.90;46.90;;;;;;4993688;28;20565;-75
2022/09/03 11:47:18;;;;;;;7.43;1.60;;;23.90;46.20;;;;;;4993991;28;20137;-75
2022/09/03 11:50:14;;;;;;;5.00;1.97;;;23.90;45.60;;;;;;4993237;28;20137;-75
2022/09/03 11:52:40;;;;;;;6.87;1.30;;;24.00;45.80;;;;;;4994113;28;20086;-74
2022/09/03 11:55:07;;;;;;;6.03;1.40;;;24.10;46.00;;;;;;4994062;28;20082;-74
2022/09/03 11:57:40;;;;;;;3.03;1.23;;;24.10;45.40;;;;;;4994222;28;20073;-74
2022/09/03 12:00:13;;;;;;;6.93;1.60;;;24.10;44.70;;;;;;4993547;28;20427;-75
2022/09/03 12:02:57;;;;;;;7.40;1.50;;;24.20;44.30;;;;;;4993862;28;20096;-78
2022/09/03 12:05:24;;;;;;;5.03;1.37;;;24.10;44.60;;;;;;4993931;28;20129;-78
2022/09/03 12:08:11;;;;;;;7.33;1.50;;;24.00;44.90;;;;;;4993750;28;20050;-74
2022/09/03 12:11:08;;;;;;;5.37;1.80;;;24.10;44.20;;;;;;4994124;28;20097;-74
2022/09/03 12:13:55;;;;;;;4.63;1.40;;;24.10;44.50;;;;;;4993845;28;20100;-74
2022/09/03 12:16:30;;;;;;;4.57;1.90;;;24.00;44.30;;;;;;4993806;28;20051;-74
2022/09/03 12:19:05;;;;;;;2.92;1.38;;;24.10;43.70;;;;;;4993710;28;20100;-74
2022/09/03 12:21:37;;;;;;;4.83;1.40;;;24.00;43.60;;;;;;4993628;28;20133;-74
2022/09/03 12:24:03;;;;;;;4.23;1.50;;;24.00;44.00;;;;;;4993791;28;20054;-74
2022/09/03 12:26:40;;;;;;;3.17;1.30;;;24.10;43.80;;;;;;4993684;28;20057;-74
2022/09/03 12:29:06;;;;;;;4.43;1.33;;;24.10;43.50;;;;;;4993784;28;20054;-73
2022/09/03 12:31:43;;;;;;;5.47;1.33;;;24.10;43.50;;;;;;4992578;28;20078;-74
2022/09/03 12:34:13;;;;;;;3.43;1.30;;;24.10;43.10;;;;;;4997513;28;20061;-74
2022/09/03 12:36:48;;;;;;;7.30;1.53;;;24.10;43.20;;;;;;4998053;28;20054;-73
2022/09/03 12:39:23;;;;;;;3.30;1.33;;;24.10;42.50;;;;;;4997511;28;20046;-78
2022/09/03 12:41:54;;;;;;;;;;;24.10;42.40;;;;;;4997698;28;20046;-74
2022/09/03 12:44:40;;;;;;;5.23;1.40;;;24.10;42.90;;;;;;4997718;28;19921;-74
2022/09/03 12:47:12;;;;;;;5.53;1.50;;;24.10;43.20;;;;;;4996629;28;20439;-74
2022/09/03 12:49:44;;;;;;;3.70;1.60;;;24.10;44.00;;;;;;4997281;28;20057;-74
2022/09/03 12:52:40;;;;;;;4.67;1.50;;;24.10;43.30;;;;;;4997690;28;20415;-74
2022/09/03 12:55:24;;;;;;;6.90;1.40;;;24.10;43.40;;;;;;4997692;28;20058;-75
2022/09/03 12:57:54;;;;;;;7.33;1.47;;;24.10;42.90;;;;;;4996326;28;20061;-74
2022/09/03 13:00:21;;;;;;;4.33;1.23;;;24.10;43.40;;;;;;4997416;28;20442;-74
2022/09/03 13:03:00;;;;;;;5.13;1.40;;;24.20;42.90;;;;;;4979453;28;20403;-74
2022/09/03 13:05:39;;;;;;;6.93;1.70;;;24.30;42.80;;;;;;4997424;28;20047;-73
2022/09/03 13:08:06;;;;;;;2.80;1.37;;;24.30;42.40;;;;;;4997399;28;20050;-74
2022/09/03 13:10:42;;;;;;;6.20;1.60;;;24.30;42.40;;;;;;4996678;28;20483;-77
2022/09/03 13:13:23;;;;;;;3.23;1.40;;;24.30;42.60;;;;;;4997355;28;20042;-77
2022/09/03 13:16:04;;;;;;;5.17;1.67;;;24.20;42.60;;;;;;4997283;28;20050;-78
2022/09/03 13:19:03;;;;;;;3.40;1.60;;;24.20;42.70;;;;;;4997516;28;20390;-78
2022/09/03 13:21:38;;;;;;;4.93;1.30;;;24.20;43.30;;;;;;4996545;28;20101;-78
2022/09/03 13:24:12;;;;;;;;;;;24.20;42.60;;;;;;4996159;28;20058;-74
2022/09/03 13:26:44;;;;;;;5.53;1.60;;;24.10;42.40;;;;;;4996474;28;19922;-75
2022/09/03 13:29:28;;;;;;;5.97;1.27;;;24.10;42.90;;;;;;4997053;28;20092;-74